Terminal Aerodrome Forecast
Issued by NWS Charleston, WV

Current Version | Previous Version | Graphics & Text | Print | Product List | Glossary On
Versions: 1 2 3 4 5 6 7 8 9 10 11 12 13 14 15 16 17 18 19 20 21 22 23 24 25 26 27 28 29 30 31 32 33 34 35 36 37 38 39
672
FTUS41 KRLX 272350 RRA
TAFHTS
TAF
KHTS 272350Z 2800/2824 00000KT P6SM VCTS SCT070CB
     FM280100 00000KT P6SM BKN080
     FM280300 00000KT 6SM HZ BKN120
     FM280400 00000KT 4SM BR BKN150
     FM281100 00000KT P6SM SHRA BKN025
     FM281300 00000KT 6SM HZ VCSH OVC070
     FM281500 00000KT 3SM SHRA VCTS OVC035CB
     FM282100 00000KT P6SM BKN050=

USA.gov is the U.S. government's official web portal to all federal, state and local government web resources and services.